Time;durP1;ratioP1;P1;durP2;ratioP2;P2;SDS_P1;SDS_P2;PMS_P1;PMS_P2;Temp;Humidity;BMP_temperature;BMP_pressure;BME280_temperature;BME280_humidity;BME280_pressure;Samples;Min_cycle;Max_cycle;Signal;HPM_P1;HPM_P2
2022/05/11 00:02:49;;;;;;;24.42;13.15;;;;;;;;;;6237254;28;20407;-58
2022/05/11 00:05:50;;;;;;;21.77;12.85;;;;;;;;;;6227542;28;20453;-56
2022/05/11 00:08:55;;;;;;;21.63;13.48;;;;;;;;;;6230709;28;20046;-54
2022/05/11 00:11:55;;;;;;;22.85;13.65;;;;;;;;;;6222940;28;20132;-58
2022/05/11 00:14:56;;;;;;;22.10;12.77;;;;;;;;;;6230994;28;20049;-55
2022/05/11 00:17:57;;;;;;;23.80;12.68;;;;;;;;;;6227581;28;20053;-55
2022/05/11 00:20:58;;;;;;;23.48;13.35;;;;;;;;;;6224435;28;20072;-56
2022/05/11 00:23:59;;;;;;;23.08;13.75;;;;;;;;;;6228251;28;20089;-57
2022/05/11 00:27:01;;;;;;;23.40;13.20;;;;;;;;;;6229941;28;20052;-55
2022/05/11 00:30:03;;;;;;;22.42;13.05;;;;;;;;;;6229499;28;20147;-55
2022/05/11 00:33:04;;;;;;;23.58;13.27;;;;;;;;;;6230835;28;20056;-58
2022/05/11 00:36:12;;;;;;;27.08;14.07;;;;;;;;;;6228895;28;20132;-56
2022/05/11 00:39:13;;;;;;;21.33;13.38;;;;;;;;;;6225497;28;20049;-56
2022/05/11 00:42:14;;;;;;;20.20;12.93;;;;;;;;;;6224546;28;20056;-57
2022/05/11 00:45:15;;;;;;;26.60;14.60;;;;;;;;;;6226723;28;20133;-54
2022/05/11 00:51:55;;;;;;;27.98;15.25;;;;;;;;;;6228957;28;20300;-55
2022/05/11 00:55:02;;;;;;;25.30;14.23;;;;;;;;;;6228108;28;20054;-53
2022/05/11 00:58:14;;;;;;;24.00;14.60;;;;;;;;;;6231607;28;20049;-55
2022/05/11 01:01:15;;;;;;;;;;;;;;;;;;6229067;28;20053;-57
2022/05/11 01:04:19;;;;;;;23.27;14.13;;;;;;;;;;6236166;28;20024;-58
2022/05/11 01:07:20;;;;;;;24.55;14.40;;;;;;;;;;6227509;28;20484;-56
2022/05/11 01:10:26;;;;;;;24.17;14.27;;;;;;;;;;6228899;28;20077;-54
2022/05/11 01:13:28;;;;;;;25.52;14.05;;;;;;;;;;6229541;28;20072;-57
2022/05/11 01:16:29;;;;;;;23.52;14.68;;;;;;;;;;6227815;28;20445;-54
2022/05/11 01:19:33;;;;;;;25.98;14.25;;;;;;;;;;6227505;28;20072;-56
2022/05/11 01:22:43;;;;;;;22.92;13.90;;;;;;;;;;6224206;28;20041;-58
2022/05/11 01:25:44;;;;;;;24.60;14.48;;;;;;;;;;6222682;28;20127;-58
2022/05/11 01:28:47;;;;;;;20.85;13.18;;;;;;;;;;6224365;28;20081;-58
2022/05/11 01:31:49;;;;;;;22.95;13.32;;;;;;;;;;6228380;28;20053;-56
2022/05/11 01:35:13;;;;;;;27.57;14.60;;;;;;;;;;6221793;28;20050;-57
2022/05/11 01:38:22;;;;;;;25.00;14.50;;;;;;;;;;6208988;28;20089;-56
2022/05/11 01:41:33;;;;;;;29.77;15.85;;;;;;;;;;6230188;28;20507;-57
2022/05/11 01:44:34;;;;;;;30.92;16.58;;;;;;;;;;6228858;28;20131;-52
2022/05/11 01:47:34;;;;;;;27.15;15.55;;;;;;;;;;6224158;28;20338;-58
2022/05/11 01:50:35;;;;;;;25.98;15.55;;;;;;;;;;6225209;28;20037;-58
2022/05/11 01:53:35;;;;;;;26.00;15.15;;;;;;;;;;6227257;28;20092;-57
2022/05/11 01:56:36;;;;;;;25.17;15.27;;;;;;;;;;6230120;28;20052;-54
2022/05/11 01:59:36;;;;;;;26.90;15.13;;;;;;;;;;6228305;28;20140;-59
2022/05/11 02:02:37;;;;;;;28.65;15.70;;;;;;;;;;6228006;28;20053;-53
2022/05/11 02:08:58;;;;;;;29.10;15.85;;;;;;;;;;6223546;28;20046;-54
2022/05/11 02:11:58;;;;;;;29.05;15.07;;;;;;;;;;6223628;28;20199;-58
2022/05/11 02:14:59;;;;;;;30.65;15.88;;;;;;;;;;6226999;28;20041;-57
2022/05/11 02:17:59;;;;;;;28.15;16.48;;;;;;;;;;6219069;28;21990;-58
2022/05/11 02:21:00;;;;;;;31.15;16.73;;;;;;;;;;6225400;28;20057;-53
2022/05/11 02:24:01;;;;;;;30.33;17.50;;;;;;;;;;6234112;28;20137;-57
2022/05/11 02:27:03;;;;;;;32.85;17.80;;;;;;;;;;6234466;28;20060;-54
2022/05/11 02:30:08;;;;;;;31.80;16.88;;;;;;;;;;6223290;28;20049;-54
2022/05/11 02:33:10;;;;;;;31.23;17.38;;;;;;;;;;6225996;28;20061;-56
2022/05/11 02:36:11;;;;;;;31.98;16.70;;;;;;;;;;6225649;28;20073;-55
2022/05/11 02:39:12;;;;;;;31.13;17.42;;;;;;;;;;6225000;28;20077;-55
2022/05/11 02:42:12;;;;;;;32.13;17.17;;;;;;;;;;6230033;28;20049;-56
2022/05/11 02:45:15;;;;;;;33.92;17.70;;;;;;;;;;6224632;28;20112;-56
2022/05/11 02:48:21;;;;;;;33.95;17.65;;;;;;;;;;6224100;28;20053;-58
2022/05/11 02:51:23;;;;;;;35.08;17.02;;;;;;;;;;6221568;28;20560;-55
2022/05/11 02:54:24;;;;;;;29.88;17.17;;;;;;;;;;6231521;28;20041;-56
2022/05/11 02:57:24;;;;;;;31.40;17.52;;;;;;;;;;6234748;28;20492;-56
2022/05/11 03:00:25;;;;;;;40.22;18.02;;;;;;;;;;6232100;28;21169;-54
2022/05/11 03:03:33;;;;;;;34.45;17.90;;;;;;;;;;6231503;28;20061;-58
2022/05/11 03:06:34;;;;;;;33.10;18.90;;;;;;;;;;6228828;28;20053;-56
2022/05/11 03:09:35;;;;;;;32.30;17.70;;;;;;;;;;6228618;28;20519;-53
2022/05/11 03:12:35;;;;;;;35.38;19.73;;;;;;;;;;6231316;28;20137;-57
2022/05/11 03:15:36;;;;;;;38.33;20.25;;;;;;;;;;6234960;28;20050;-56
2022/05/11 03:18:37;;;;;;;38.40;20.45;;;;;;;;;;6232860;28;20074;-55
2022/05/11 03:21:38;;;;;;;41.00;21.80;;;;;;;;;;6231827;28;20049;-55
2022/05/11 03:24:38;;;;;;;32.83;19.27;;;;;;;;;;6229841;28;20144;-57
2022/05/11 03:27:39;;;;;;;39.58;21.20;;;;;;;;;;6228093;28;20065;-56
2022/05/11 03:30:39;;;;;;;38.20;22.77;;;;;;;;;;6227661;28;20133;-57
2022/05/11 03:37:18;;;;;;;41.78;22.35;;;;;;;;;;6218237;28;20512;-54
2022/05/11 03:40:19;;;;;;;38.33;22.20;;;;;;;;;;6232964;28;20046;-54
2022/05/11 03:43:20;;;;;;;38.83;22.00;;;;;;;;;;6230065;28;20178;-57
2022/05/11 03:46:20;;;;;;;38.05;21.08;;;;;;;;;;6234189;28;20059;-58
2022/05/11 03:49:21;;;;;;;38.97;20.00;;;;;;;;;;6243487;28;20540;-58
2022/05/11 03:52:23;;;;;;;40.70;20.23;;;;;;;;;;6237246;28;20051;-59
2022/05/11 03:55:24;;;;;;;35.57;19.97;;;;;;;;;;6230190;28;20045;-56
2022/05/11 03:58:25;;;;;;;36.53;17.73;;;;;;;;;;6231500;28;20389;-57
2022/05/11 04:01:26;;;;;;;37.08;17.95;;;;;;;;;;6228824;28;20144;-56
2022/05/11 04:04:26;;;;;;;37.35;17.88;;;;;;;;;;6229071;28;20099;-59
2022/05/11 04:07:27;;;;;;;37.53;18.73;;;;;;;;;;6227557;28;20045;-59
2022/05/11 04:10:27;;;;;;;31.52;17.92;;;;;;;;;;6228752;28;20520;-57
2022/05/11 04:13:28;;;;;;;32.63;17.38;;;;;;;;;;6231900;28;20116;-57
2022/05/11 04:16:29;;;;;;;30.73;17.00;;;;;;;;;;6231748;28;20062;-56
2022/05/11 04:19:29;;;;;;;33.92;17.33;;;;;;;;;;6231947;28;20076;-58
2022/05/11 04:22:30;;;;;;;28.58;16.42;;;;;;;;;;6226778;28;20053;-57
2022/05/11 04:25:32;;;;;;;31.15;17.40;;;;;;;;;;6225766;28;20092;-59
2022/05/11 04:28:33;;;;;;;32.92;16.55;;;;;;;;;;6233853;28;20057;-58
2022/05/11 04:31:33;;;;;;;28.52;16.33;;;;;;;;;;6228804;28;20091;-56
2022/05/11 04:34:34;;;;;;;27.20;16.63;;;;;;;;;;6231363;28;20056;-56
2022/05/11 04:37:35;;;;;;;29.23;16.25;;;;;;;;;;6232120;28;20136;-58
2022/05/11 04:40:36;;;;;;;27.27;16.58;;;;;;;;;;6229666;28;20056;-58
2022/05/11 04:43:36;;;;;;;35.75;18.00;;;;;;;;;;6225223;28;20168;-59
2022/05/11 04:46:38;;;;;;;30.80;16.27;;;;;;;;;;6226332;28;20049;-58
2022/05/11 04:49:39;;;;;;;35.38;17.92;;;;;;;;;;6228242;28;20050;-56
2022/05/11 04:52:40;;;;;;;31.63;17.75;;;;;;;;;;6231333;28;20057;-58
2022/05/11 04:55:43;;;;;;;30.95;17.35;;;;;;;;;;6218321;28;20050;-58
2022/05/11 04:58:44;;;;;;;34.35;18.33;;;;;;;;;;6218782;28;20539;-58
2022/05/11 05:01:45;;;;;;;33.40;18.77;;;;;;;;;;6229388;28;20045;-59
2022/05/11 05:04:46;;;;;;;31.98;17.48;;;;;;;;;;6240908;28;20404;-58
2022/05/11 05:07:47;;;;;;;31.73;17.10;;;;;;;;;;6241889;28;20492;-58
2022/05/11 05:10:47;;;;;;;30.45;16.60;;;;;;;;;;6233516;28;20042;-59
2022/05/11 05:13:48;;;;;;;30.80;15.60;;;;;;;;;;6228725;28;20471;-58
2022/05/11 05:16:49;;;;;;;27.52;16.42;;;;;;;;;;6242697;28;20045;-56
2022/05/11 05:19:49;;;;;;;27.83;15.50;;;;;;;;;;6241905;28;20531;-55
2022/05/11 05:22:50;;;;;;;27.45;15.63;;;;;;;;;;6240984;28;20463;-57
2022/05/11 05:25:51;;;;;;;28.67;15.25;;;;;;;;;;6242700;28;20564;-59
2022/05/11 05:32:11;;;;;;;26.48;14.20;;;;;;;;;;6236616;28;20091;-56
2022/05/11 05:35:16;;;;;;;29.63;14.17;;;;;;;;;;6240227;28;20412;-57
2022/05/11 05:38:16;;;;;;;27.58;13.77;;;;;;;;;;6239859;28;20519;-56
2022/05/11 05:41:17;;;;;;;22.65;12.73;;;;;;;;;;6241838;28;20130;-58
2022/05/11 05:44:19;;;;;;;22.13;12.75;;;;;;;;;;6240376;28;20049;-58
2022/05/11 05:47:20;;;;;;;19.23;12.05;;;;;;;;;;6240712;28;20084;-58
2022/05/11 05:50:20;;;;;;;22.02;12.18;;;;;;;;;;6232899;28;20089;-59
2022/05/11 05:53:21;;;;;;;23.17;12.52;;;;;;;;;;6231023;28;20042;-57
2022/05/11 05:56:22;;;;;;;22.75;11.85;;;;;;;;;;6242271;28;20132;-58
2022/05/11 05:59:22;;;;;;;16.27;9.68;;;;;;;;;;6242095;28;20052;-58
2022/05/11 06:02:23;;;;;;;17.05;10.40;;;;;;;;;;6240400;28;20137;-59
2022/05/11 06:05:24;;;;;;;19.25;11.25;;;;;;;;;;6233949;28;20054;-62
2022/05/11 06:08:24;;;;;;;15.77;10.35;;;;;;;;;;6249508;28;20083;-58
2022/05/11 06:11:25;;;;;;;17.90;9.82;;;;;;;;;;6265179;28;20081;-59
2022/05/11 06:14:26;;;;;;;18.95;9.70;;;;;;;;;;6266109;28;20056;-59
2022/05/11 06:17:28;;;;;;;16.35;8.40;;;;;;;;;;6266600;28;20071;-59
2022/05/11 06:20:28;;;;;;;;;;;;;;;;;;6266563;28;20102;-60
2022/05/11 06:23:29;;;;;;;13.40;8.55;;;;;;;;;;6246798;28;19921;-56
2022/05/11 06:26:30;;;;;;;18.38;8.60;;;;;;;;;;6242745;28;20508;-59
2022/05/11 06:29:30;;;;;;;15.63;8.43;;;;;;;;;;6234815;28;20045;-59
2022/05/11 06:32:31;;;;;;;13.93;8.07;;;;;;;;;;6224435;28;20505;-59
2022/05/11 06:35:32;;;;;;;12.35;7.88;;;;;;;;;;6222676;28;20048;-58
2022/05/11 06:38:34;;;;;;;11.25;7.05;;;;;;;;;;6222094;28;20124;-58
2022/05/11 06:41:35;;;;;;;15.35;7.40;;;;;;;;;;6223160;28;20487;-57
2022/05/11 06:44:36;;;;;;;13.73;7.00;;;;;;;;;;6224758;28;20052;-57
2022/05/11 06:47:36;;;;;;;13.73;7.10;;;;;;;;;;6229800;28;20509;-58
2022/05/11 06:50:37;;;;;;;13.75;6.90;;;;;;;;;;6227286;28;20042;-60
2022/05/11 07:00:17;;;;;;;15.27;7.30;;;;;;;;;;6232104;28;20168;-59
2022/05/11 07:03:19;;;;;;;8.97;5.83;;;;;;;;;;6228471;28;20459;-58
2022/05/11 07:06:19;;;;;;;10.47;6.47;;;;;;;;;;6221845;28;20076;-58
2022/05/11 07:09:21;;;;;;;10.95;6.63;;;;;;;;;;6221057;28;20291;-59
2022/05/11 07:12:25;;;;;;;11.85;6.22;;;;;;;;;;6223914;28;20049;-58
2022/05/11 07:15:26;;;;;;;11.52;6.40;;;;;;;;;;6227878;28;20046;-60
2022/05/11 07:18:26;;;;;;;13.97;6.73;;;;;;;;;;6220987;28;20050;-58
2022/05/11 07:21:27;;;;;;;14.30;6.33;;;;;;;;;;6222218;28;20045;-59
2022/05/11 07:24:27;;;;;;;11.93;6.50;;;;;;;;;;6207747;28;20058;-58
2022/05/11 07:27:28;;;;;;;10.38;6.38;;;;;;;;;;6229518;28;20160;-59
2022/05/11 07:30:32;;;;;;;11.17;6.03;;;;;;;;;;6217764;28;20052;-58
2022/05/11 07:33:33;;;;;;;12.57;6.50;;;;;;;;;;6220441;28;20804;-56
2022/05/11 07:36:34;;;;;;;9.93;6.33;;;;;;;;;;6210375;28;20176;-55
2022/05/11 07:39:35;;;;;;;11.17;6.13;;;;;;;;;;6229213;28;20058;-59
2022/05/11 07:42:35;;;;;;;13.97;6.80;;;;;;;;;;6230265;28;20817;-59
2022/05/11 07:45:37;;;;;;;11.93;6.60;;;;;;;;;;6231484;28;20140;-59
2022/05/11 07:48:38;;;;;;;12.10;6.20;;;;;;;;;;6234273;28;20496;-60
2022/05/11 07:51:41;;;;;;;11.10;6.10;;;;;;;;;;6228067;28;20136;-60
2022/05/11 07:54:42;;;;;;;11.70;6.40;;;;;;;;;;6229040;28;20046;-59
2022/05/11 08:01:02;;;;;;;10.75;6.38;;;;;;;;;;6221073;28;20034;-59
2022/05/11 08:04:03;;;;;;;13.23;6.35;;;;;;;;;;6228473;28;20096;-59
2022/05/11 08:07:04;;;;;;;13.27;7.03;;;;;;;;;;6229664;28;20046;-58
2022/05/11 08:10:06;;;;;;;9.68;5.95;;;;;;;;;;6232294;28;20472;-57
2022/05/11 08:13:10;;;;;;;12.93;6.35;;;;;;;;;;6224583;28;20064;-61
2022/05/11 08:16:10;;;;;;;11.38;6.53;;;;;;;;;;6224060;28;20045;-58
2022/05/11 08:19:12;;;;;;;12.27;6.30;;;;;;;;;;6227995;28;20053;-57
2022/05/11 08:22:12;;;;;;;10.38;6.00;;;;;;;;;;6232031;28;20045;-58
2022/05/11 08:25:15;;;;;;;12.00;6.53;;;;;;;;;;6230369;28;20504;-58
2022/05/11 08:28:19;;;;;;;11.93;6.93;;;;;;;;;;6231726;28;20455;-56
2022/05/11 08:34:38;;;;;;;14.35;6.60;;;;;;;;;;6226466;28;20044;-59
2022/05/11 08:37:39;;;;;;;14.93;7.47;;;;;;;;;;6227835;28;20033;-60
2022/05/11 08:40:49;;;;;;;11.97;7.20;;;;;;;;;;6228742;28;20100;-57
2022/05/11 08:43:51;;;;;;;12.00;7.15;;;;;;;;;;6229189;28;20497;-60
2022/05/11 08:47:20;;;;;;;13.18;7.03;;;;;;;;;;6229877;28;20085;-60
2022/05/11 08:50:26;;;;;;;13.07;6.80;;;;;;;;;;6230718;28;20080;-60
2022/05/11 08:53:40;;;;;;;9.98;6.60;;;;;;;;;;6231846;28;20049;-57
2022/05/11 08:56:43;;;;;;;11.00;7.10;;;;;;;;;;6229294;28;20476;-60
2022/05/11 08:59:44;;;;;;;9.63;7.22;;;;;;;;;;6226043;28;20131;-61
2022/05/11 09:02:56;;;;;;;7.80;6.50;;;;;;;;;;6225708;28;20563;-60
2022/05/11 09:06:00;;;;;;;;;;;;;;;;;;6226328;28;21731;-58
2022/05/11 09:09:03;;;;;;;10.07;6.97;;;;;;;;;;6229474;28;20023;-60
2022/05/11 09:12:05;;;;;;;11.88;7.50;;;;;;;;;;6230961;28;20038;-61
2022/05/11 09:15:07;;;;;;;9.90;6.80;;;;;;;;;;6231462;28;20550;-57
2022/05/11 09:18:07;;;;;;;15.27;7.03;;;;;;;;;;6228885;28;20528;-60
2022/05/11 09:21:24;;;;;;;12.40;7.23;;;;;;;;;;6224428;28;20046;-61
2022/05/11 09:24:28;;;;;;;9.23;7.05;;;;;;;;;;6225696;28;20052;-59
2022/05/11 09:27:32;;;;;;;10.40;7.18;;;;;;;;;;6224590;28;20053;-60
2022/05/11 09:30:33;;;;;;;10.30;7.57;;;;;;;;;;6227859;28;20042;-57
2022/05/11 09:33:39;;;;;;;10.87;7.03;;;;;;;;;;6229743;28;20049;-58
2022/05/11 09:36:51;;;;;;;13.30;7.53;;;;;;;;;;6227933;28;20049;-59
2022/05/11 09:40:21;;;;;;;;;;;;;;;;;;6227855;28;20050;-59
2022/05/11 09:43:41;;;;;;;9.63;6.93;;;;;;;;;;6216755;28;19924;-59
2022/05/11 09:46:43;;;;;;;9.00;7.60;;;;;;;;;;6223296;28;20050;-60
2022/05/11 09:49:44;;;;;;;12.73;7.67;;;;;;;;;;6224099;28;20866;-58
2022/05/11 09:52:45;;;;;;;10.13;6.77;;;;;;;;;;6224836;28;20049;-60
2022/05/11 09:55:46;;;;;;;11.65;7.05;;;;;;;;;;6226716;28;20153;-59
2022/05/11 09:58:46;;;;;;;8.03;6.97;;;;;;;;;;6227676;28;20050;-58
2022/05/11 10:01:49;;;;;;;13.90;7.37;;;;;;;;;;6227544;28;20046;-59
2022/05/11 10:05:06;;;;;;;10.02;7.25;;;;;;;;;;6224891;28;20413;-58
2022/05/11 10:08:32;;;;;;;9.85;7.30;;;;;;;;;;6226947;28;20052;-58
2022/05/11 10:11:39;;;;;;;10.40;7.38;;;;;;;;;;6225750;28;20183;-58
2022/05/11 10:25:10;;;;;;;10.43;6.93;;;;;;;;;;6225089;28;20097;-59
2022/05/11 10:28:21;;;;;;;9.70;6.65;;;;;;;;;;6226073;28;20481;-60
2022/05/11 10:31:37;;;;;;;10.77;7.22;;;;;;;;;;6227494;28;20050;-58
2022/05/11 10:35:10;;;;;;;9.35;7.00;;;;;;;;;;6226387;28;20046;-58
2022/05/11 10:38:23;;;;;;;9.05;7.25;;;;;;;;;;6227598;28;20145;-58
2022/05/11 10:41:38;;;;;;;9.98;7.90;;;;;;;;;;6226900;28;20412;-61
2022/05/11 10:44:56;;;;;;;9.40;7.20;;;;;;;;;;6226392;28;20243;-60
2022/05/11 10:48:08;;;;;;;9.00;7.30;;;;;;;;;;6224443;28;20060;-60
2022/05/11 10:51:38;;;;;;;10.45;7.28;;;;;;;;;;6223503;28;20073;-58
2022/05/11 10:55:08;;;;;;;11.40;7.50;;;;;;;;;;6223865;28;20636;-59
2022/05/11 10:58:54;;;;;;;9.00;7.47;;;;;;;;;;6223405;28;20069;-60
2022/05/11 11:02:22;;;;;;;9.18;7.60;;;;;;;;;;6181260;28;20536;-60
2022/05/11 11:05:34;;;;;;;7.93;6.80;;;;;;;;;;6189151;28;20513;-60
2022/05/11 11:08:43;;;;;;;10.23;7.28;;;;;;;;;;6226879;28;20045;-60
2022/05/11 11:12:18;;;;;;;9.35;7.30;;;;;;;;;;6226150;28;20501;-58
2022/05/11 11:15:23;;;;;;;7.75;6.90;;;;;;;;;;6229203;28;20080;-61
2022/05/11 11:18:32;;;;;;;10.40;7.40;;;;;;;;;;6232738;28;20046;-58
2022/05/11 11:21:33;;;;;;;8.68;6.18;;;;;;;;;;6232766;28;20057;-59
2022/05/11 11:24:34;;;;;;;;;;;;;;;;;;6231591;28;20077;-60
2022/05/11 11:28:00;;;;;;;9.37;6.27;;;;;;;;;;6226744;28;19978;-61
2022/05/11 11:31:02;;;;;;;11.73;8.50;;;;;;;;;;6226608;28;20042;-58
2022/05/11 11:34:06;;;;;;;13.77;9.05;;;;;;;;;;6242204;28;20052;-60
2022/05/11 11:37:24;;;;;;;9.82;7.20;;;;;;;;;;6244299;28;20077;-59
2022/05/11 11:40:28;;;;;;;10.70;7.38;;;;;;;;;;6244344;28;20134;-60
2022/05/11 11:43:53;;;;;;;12.63;6.90;;;;;;;;;;6244804;28;20080;-58
2022/05/11 11:46:54;;;;;;;10.90;6.10;;;;;;;;;;6245033;28;20099;-59
2022/05/11 11:49:57;;;;;;;9.43;6.50;;;;;;;;;;6245603;28;20128;-59
2022/05/11 11:53:10;;;;;;;8.93;6.43;;;;;;;;;;6242663;28;20050;-61
2022/05/11 11:56:25;;;;;;;9.40;6.65;;;;;;;;;;6243319;28;20049;-60
2022/05/11 11:59:26;;;;;;;8.05;6.40;;;;;;;;;;6243521;28;20048;-60
2022/05/11 12:02:33;;;;;;;9.70;6.87;;;;;;;;;;6244342;28;20046;-59
2022/05/11 12:05:45;;;;;;;13.98;6.72;;;;;;;;;;6243546;28;20049;-60
2022/05/11 12:15:35;;;;;;;8.00;6.25;;;;;;;;;;6244443;28;20045;-60
2022/05/11 12:18:38;;;;;;;9.07;6.70;;;;;;;;;;6241860;28;20061;-59
2022/05/11 12:21:41;;;;;;;10.68;6.20;;;;;;;;;;6244263;28;20492;-59
2022/05/11 12:24:48;;;;;;;9.07;6.57;;;;;;;;;;6241433;28;20068;-60
2022/05/11 12:27:50;;;;;;;9.55;7.30;;;;;;;;;;6228707;28;20060;-60
2022/05/11 12:30:50;;;;;;;10.52;6.68;;;;;;;;;;6231489;28;20144;-56
2022/05/11 12:33:54;;;;;;;9.00;6.20;;;;;;;;;;6231783;28;20065;-57
2022/05/11 12:36:55;;;;;;;21.25;8.57;;;;;;;;;;6229812;28;20045;-59
2022/05/11 12:39:57;;;;;;;9.93;6.40;;;;;;;;;;6226218;28;20041;-60
2022/05/11 12:43:05;;;;;;;9.50;5.80;;;;;;;;;;6225944;28;20060;-59
2022/05/11 12:46:13;;;;;;;10.18;6.90;;;;;;;;;;6228588;28;20073;-56
2022/05/11 12:49:15;;;;;;;14.52;6.43;;;;;;;;;;6227714;28;20057;-60
2022/05/11 12:52:17;;;;;;;10.60;6.57;;;;;;;;;;6230530;28;20494;-58
2022/05/11 12:55:25;;;;;;;;;;;;;;;;;;6231113;28;20449;-59
2022/05/11 12:58:28;;;;;;;13.68;7.10;;;;;;;;;;6227287;28;19921;-56
2022/05/11 13:01:31;;;;;;;9.10;6.35;;;;;;;;;;6225782;28;20064;-57
2022/05/11 13:04:32;;;;;;;10.05;7.20;;;;;;;;;;6227534;28;20089;-57
2022/05/11 13:07:40;;;;;;;11.27;6.27;;;;;;;;;;6229025;28;20054;-60
2022/05/11 13:10:41;;;;;;;11.05;6.90;;;;;;;;;;6229054;28;20045;-58
2022/05/11 13:13:45;;;;;;;10.43;6.60;;;;;;;;;;6228926;28;20046;-61
2022/05/11 13:16:53;;;;;;;9.00;6.47;;;;;;;;;;6227971;28;20512;-58
2022/05/11 13:20:00;;;;;;;11.93;6.43;;;;;;;;;;6228078;28;20045;-59
2022/05/11 13:23:01;;;;;;;12.23;6.55;;;;;;;;;;6225844;28;20127;-56
2022/05/11 13:26:30;;;;;;;10.98;6.63;;;;;;;;;;6227193;28;20126;-56
2022/05/11 13:29:31;;;;;;;13.68;6.47;;;;;;;;;;6232627;28;20050;-58
2022/05/11 13:32:37;;;;;;;12.43;6.90;;;;;;;;;;6226921;28;20568;-59
2022/05/11 13:35:39;;;;;;;12.00;8.02;;;;;;;;;;6230966;28;20121;-56
2022/05/11 13:39:03;;;;;;;14.07;7.00;;;;;;;;;;6213938;28;20042;-55
2022/05/11 13:42:18;;;;;;;31.77;8.40;;;;;;;;;;6230086;28;20420;-60
2022/05/11 13:45:22;;;;;;;8.65;5.85;;;;;;;;;;6223331;28;20053;-58
2022/05/11 13:49:14;;;;;;;9.35;6.25;;;;;;;;;;6234845;28;20081;-59
2022/05/11 13:52:35;;;;;;;;;;;;;;;;;;6206729;28;20044;-59
2022/05/11 13:55:39;;;;;;;7.72;6.20;;;;;;;;;;6240476;28;19967;-58
2022/05/11 13:59:03;;;;;;;10.85;6.50;;;;;;;;;;6240215;28;20137;-58
2022/05/11 14:02:03;;;;;;;10.93;6.70;;;;;;;;;;6222569;28;20058;-58
2022/05/11 14:05:05;;;;;;;10.33;6.70;;;;;;;;;;6210041;28;20114;-58
2022/05/11 14:08:06;;;;;;;;;;;;;;;;;;6227609;28;20243;-57
2022/05/11 14:11:07;;;;;;;8.20;6.38;;;;;;;;;;6225688;28;20338;-56
2022/05/11 14:14:07;;;;;;;10.07;6.23;;;;;;;;;;6226718;28;21018;-58
2022/05/11 14:17:12;;;;;;;13.17;7.13;;;;;;;;;;6230089;28;20064;-58
2022/05/11 14:20:16;;;;;;;8.50;6.35;;;;;;;;;;6225526;28;20064;-59
2022/05/11 14:23:17;;;;;;;12.18;6.35;;;;;;;;;;6223691;28;20649;-60
2022/05/11 14:26:18;;;;;;;8.50;6.28;;;;;;;;;;6227779;28;20049;-58
2022/05/11 14:29:19;;;;;;;9.55;6.60;;;;;;;;;;6227397;28;20165;-57
2022/05/11 14:32:28;;;;;;;12.27;7.40;;;;;;;;;;6225947;28;21399;-58
2022/05/11 14:35:29;;;;;;;10.52;6.60;;;;;;;;;;6229047;28;20038;-58
2022/05/11 14:38:29;;;;;;;11.02;6.65;;;;;;;;;;6229402;28;20820;-59
2022/05/11 14:41:30;;;;;;;9.70;7.27;;;;;;;;;;6222761;28;20050;-57
2022/05/11 14:44:30;;;;;;;8.30;6.60;;;;;;;;;;6230485;28;20042;-58
2022/05/11 14:47:32;;;;;;;13.03;8.33;;;;;;;;;;6236917;28;20312;-58
2022/05/11 14:50:32;;;;;;;10.10;6.80;;;;;;;;;;6233515;28;20468;-59
2022/05/11 14:53:33;;;;;;;11.50;7.50;;;;;;;;;;6234342;28;20041;-58
2022/05/11 14:56:34;;;;;;;11.85;6.93;;;;;;;;;;6234585;28;20500;-58
2022/05/11 15:02:54;;;;;;;13.25;7.03;;;;;;;;;;6231599;28;20096;-58
2022/05/11 15:05:56;;;;;;;11.13;6.90;;;;;;;;;;6236965;28;20062;-57
2022/05/11 15:08:57;;;;;;;8.77;6.85;;;;;;;;;;6237281;28;20294;-58
2022/05/11 15:15:17;;;;;;;11.10;7.18;;;;;;;;;;6234804;28;20065;-59
2022/05/11 15:18:19;;;;;;;9.80;7.50;;;;;;;;;;6238782;28;20491;-59
2022/05/11 15:21:19;;;;;;;;;;;;;;;;;;6236541;28;21198;-59
2022/05/11 15:24:20;;;;;;;9.80;7.80;;;;;;;;;;6236563;28;19963;-58
2022/05/11 15:27:21;;;;;;;14.60;7.03;;;;;;;;;;6240606;28;21550;-59
2022/05/11 15:30:22;;;;;;;8.67;6.90;;;;;;;;;;6239881;28;20049;-58
2022/05/11 15:33:23;;;;;;;;;;;;;;;;;;6237353;28;20876;-58
2022/05/11 15:36:23;;;;;;;13.40;6.97;;;;;;;;;;6239289;28;19928;-58
2022/05/11 15:39:26;;;;;;;9.63;6.90;;;;;;;;;;6237497;28;20049;-58
2022/05/11 15:42:28;;;;;;;9.15;6.50;;;;;;;;;;6234450;28;20054;-59
2022/05/11 15:45:29;;;;;;;8.75;6.40;;;;;;;;;;6238468;28;20111;-60
2022/05/11 15:48:31;;;;;;;8.35;6.40;;;;;;;;;;6239440;28;20389;-59
2022/05/11 15:51:33;;;;;;;10.32;6.63;;;;;;;;;;6236567;28;20809;-59
2022/05/11 15:54:33;;;;;;;10.23;6.78;;;;;;;;;;6238978;28;20068;-58
2022/05/11 15:57:35;;;;;;;12.30;7.28;;;;;;;;;;6235892;28;20192;-57
2022/05/11 16:00:35;;;;;;;;;;;;;;;;;;6235977;28;20126;-59
2022/05/11 16:03:38;;;;;;;8.00;6.07;;;;;;;;;;6231660;28;19925;-59
2022/05/11 16:06:39;;;;;;;9.02;6.80;;;;;;;;;;6233908;28;20132;-55
2022/05/11 16:09:40;;;;;;;10.85;6.65;;;;;;;;;;6234941;28;20073;-59
2022/05/11 16:12:42;;;;;;;9.90;6.00;;;;;;;;;;6231252;28;20037;-58
2022/05/11 16:15:43;;;;;;;9.15;5.90;;;;;;;;;;6233916;28;20095;-59
2022/05/11 16:22:03;;;;;;;9.23;5.90;;;;;;;;;;6231491;28;20089;-57
2022/05/11 16:25:05;;;;;;;9.73;6.10;;;;;;;;;;6233430;28;20035;-58
2022/05/11 16:28:06;;;;;;;8.93;6.57;;;;;;;;;;6234883;28;20578;-58
2022/05/11 16:31:08;;;;;;;13.18;6.32;;;;;;;;;;6233252;28;21785;-58
2022/05/11 16:34:10;;;;;;;11.18;6.20;;;;;;;;;;6232215;28;20069;-58
2022/05/11 16:37:11;;;;;;;7.18;5.95;;;;;;;;;;6233891;28;20053;-57
2022/05/11 16:40:13;;;;;;;8.98;6.00;;;;;;;;;;6234885;28;20077;-57
2022/05/11 16:43:14;;;;;;;;;;;;;;;;;;6231432;28;20046;-58
2022/05/11 16:46:15;;;;;;;8.97;6.43;;;;;;;;;;6233549;28;19929;-58
2022/05/11 16:49:16;;;;;;;7.82;6.30;;;;;;;;;;6234090;28;20049;-56
2022/05/11 16:52:19;;;;;;;11.93;6.60;;;;;;;;;;6231627;28;20089;-58
2022/05/11 16:55:20;;;;;;;8.45;6.63;;;;;;;;;;6231901;28;20526;-60
2022/05/11 16:58:22;;;;;;;12.23;6.55;;;;;;;;;;6234322;28;20045;-58
2022/05/11 17:01:26;;;;;;;17.10;7.30;;;;;;;;;;6230343;28;20091;-56
2022/05/11 17:04:28;;;;;;;13.77;6.65;;;;;;;;;;6231113;28;20131;-57
2022/05/11 17:07:29;;;;;;;11.05;6.55;;;;;;;;;;6230624;28;20056;-59
2022/05/11 17:10:31;;;;;;;8.98;6.57;;;;;;;;;;6233035;28;20049;-61
2022/05/11 17:13:32;;;;;;;9.75;6.78;;;;;;;;;;6230996;28;20041;-59
2022/05/11 17:16:32;;;;;;;8.93;6.68;;;;;;;;;;6232140;28;20053;-58
2022/05/11 17:19:33;;;;;;;8.40;6.63;;;;;;;;;;6232705;28;20072;-59
2022/05/11 17:22:33;;;;;;;9.33;6.40;;;;;;;;;;6229431;28;20049;-59
2022/05/11 17:25:34;;;;;;;9.60;6.80;;;;;;;;;;6231115;28;20041;-59
2022/05/11 17:28:35;;;;;;;10.85;6.55;;;;;;;;;;6229046;28;20107;-59
2022/05/11 17:31:37;;;;;;;8.63;6.70;;;;;;;;;;6231446;28;20052;-59
2022/05/11 17:34:40;;;;;;;10.85;6.60;;;;;;;;;;6230492;28;20073;-65
2022/05/11 17:37:42;;;;;;;11.43;7.47;;;;;;;;;;6233400;28;20099;-59
2022/05/11 17:40:44;;;;;;;15.18;7.45;;;;;;;;;;6232907;28;20065;-55
2022/05/11 17:43:45;;;;;;;11.23;7.57;;;;;;;;;;6229634;28;20057;-61
2022/05/11 17:46:46;;;;;;;11.50;6.57;;;;;;;;;;6232458;28;20183;-59
2022/05/11 17:49:46;;;;;;;15.27;8.73;;;;;;;;;;6230786;28;20061;-60
2022/05/11 17:52:52;;;;;;;11.17;7.70;;;;;;;;;;6228614;28;20511;-59
2022/05/11 17:55:53;;;;;;;20.67;7.78;;;;;;;;;;6230291;28;20046;-59
2022/05/11 17:58:54;;;;;;;13.52;8.20;;;;;;;;;;6231488;28;20041;-59
2022/05/11 18:01:54;;;;;;;10.03;7.47;;;;;;;;;;6227936;28;20437;-58
2022/05/11 18:04:55;;;;;;;13.17;7.77;;;;;;;;;;6227204;28;20049;-59
2022/05/11 18:07:55;;;;;;;10.60;7.97;;;;;;;;;;6228095;28;20046;-57
2022/05/11 18:10:56;;;;;;;9.03;7.03;;;;;;;;;;6228380;28;20045;-59
2022/05/11 18:13:56;;;;;;;12.13;9.03;;;;;;;;;;6226904;28;20048;-61
2022/05/11 18:16:59;;;;;;;11.73;8.30;;;;;;;;;;6226692;28;20087;-60
2022/05/11 18:19:59;;;;;;;9.27;7.70;;;;;;;;;;6231103;28;20037;-60
2022/05/11 18:23:00;;;;;;;8.38;6.78;;;;;;;;;;6224185;28;20075;-61
2022/05/11 18:26:01;;;;;;;16.67;8.15;;;;;;;;;;6225830;28;20080;-59
2022/05/11 18:29:02;;;;;;;8.80;7.30;;;;;;;;;;6227004;28;20072;-61
2022/05/11 18:32:03;;;;;;;11.85;8.25;;;;;;;;;;6225366;28;20368;-60
2022/05/11 18:35:05;;;;;;;10.85;7.82;;;;;;;;;;6223328;28;20065;-58
2022/05/11 18:38:05;;;;;;;13.50;9.00;;;;;;;;;;6225895;28;20081;-59
2022/05/11 18:41:06;;;;;;;12.67;8.60;;;;;;;;;;6226197;28;20129;-59
2022/05/11 18:44:10;;;;;;;11.90;7.77;;;;;;;;;;6222494;28;20087;-59
2022/05/11 18:47:10;;;;;;;12.43;8.63;;;;;;;;;;6223458;28;20547;-59
2022/05/11 18:50:11;;;;;;;10.93;8.40;;;;;;;;;;6224957;28;20043;-61
2022/05/11 18:53:12;;;;;;;12.07;8.30;;;;;;;;;;6221271;28;20069;-59
2022/05/11 18:56:13;;;;;;;16.95;9.68;;;;;;;;;;6222804;28;20228;-57
2022/05/11 18:59:13;;;;;;;10.87;7.47;;;;;;;;;;6231575;28;20041;-58
2022/05/11 19:02:14;;;;;;;10.00;7.83;;;;;;;;;;6229943;28;20068;-59
2022/05/11 19:05:15;;;;;;;12.30;7.50;;;;;;;;;;6229546;28;20144;-59